Time;durP1;ratioP1;P1;durP2;ratioP2;P2;SDS_P1;SDS_P2;PMS_P1;PMS_P2;Temp;Humidity;BMP_temperature;BMP_pressure;BME280_temperature;BME280_humidity;BME280_pressure;Samples;Min_cycle;Max_cycle;Signal;HPM_P1;HPM_P2
2022/05/16 02:11:13;;;;;;;3.60;2.20;;;;;;;19.80;52.52;99483.25;4901235;29;20079;-91
2022/05/16 02:13:40;;;;;;;2.80;2.08;;;;;;;19.77;52.47;99470.09;4900242;29;20093;-91
2022/05/16 02:16:07;;;;;;;2.50;2.30;;;;;;;19.77;52.58;99461.13;4884165;29;20041;-91
2022/05/16 02:18:33;;;;;;;4.40;2.25;;;;;;;19.77;53.59;99464.66;4884477;29;20027;-91
2022/05/16 02:26:27;;;;;;;3.80;2.15;;;;;;;19.81;53.41;99454.22;4900572;29;20142;-91
2022/05/16 02:28:53;;;;;;;4.90;2.25;;;;;;;19.76;53.90;99445.88;4884155;29;20133;-91
2022/05/16 02:31:20;;;;;;;3.55;2.10;;;;;;;19.78;53.57;99449.22;4884516;29;20080;-91
2022/05/16 02:33:46;;;;;;;2.47;1.90;;;;;;;19.73;53.71;99447.13;4884492;29;20035;-91
2022/05/16 02:36:11;;;;;;;2.85;2.22;;;;;;;19.65;53.65;99446.53;4883999;29;20028;-91
2022/05/16 02:38:37;;;;;;;4.32;2.13;;;;;;;19.65;53.48;99443.81;4883865;29;20472;-91
2022/05/16 02:41:02;;;;;;;3.65;2.10;;;;;;;19.65;53.44;99439.22;4884125;29;20025;-90
2022/05/16 02:43:27;;;;;;;2.72;2.13;;;;;;;19.58;54.18;99432.97;4883754;29;20021;-92
2022/05/16 02:45:53;;;;;;;2.63;2.10;;;;;;;19.61;54.17;99431.69;4883974;29;20478;-90
2022/05/16 02:48:18;;;;;;;3.50;2.15;;;;;;;19.60;53.91;99433.59;4883544;29;20104;-92
2022/05/16 02:50:43;;;;;;;3.30;2.58;;;;;;;19.58;53.73;99435.66;4883616;29;20028;-91
2022/05/16 02:53:10;;;;;;;3.28;2.17;;;;;;;19.61;54.37;99426.28;4884009;29;20033;-91
2022/05/16 02:55:35;;;;;;;3.25;2.30;;;;;;;19.59;54.70;99436.50;4883643;29;20037;-91
2022/05/16 02:58:01;;;;;;;2.35;2.10;;;;;;;19.59;54.15;99420.22;4883644;29;20032;-91
2022/05/16 03:00:27;;;;;;;3.80;2.58;;;;;;;19.52;54.47;99422.91;4883419;29;20025;-91
2022/05/16 03:02:52;;;;;;;3.17;2.33;;;;;;;19.46;54.66;99432.72;5375334;23;20426;-91
2022/05/16 03:05:18;;;;;;;4.43;2.70;;;;;;;19.47;55.91;99420.00;4921234;29;20027;-90
2022/05/16 03:07:43;;;;;;;4.53;2.70;;;;;;;19.53;55.48;99427.31;4905167;29;20102;-91
2022/05/16 03:10:11;;;;;;;6.88;2.75;;;;;;;19.55;54.73;99411.66;4905240;29;20046;-91
2022/05/16 03:12:36;;;;;;;3.50;2.55;;;;;;;19.52;54.59;99414.78;4905214;29;20020;-91
2022/05/16 03:15:02;;;;;;;2.65;1.83;;;;;;;19.55;54.75;99417.09;4905441;29;20028;-91
2022/05/16 03:17:27;;;;;;;3.50;2.10;;;;;;;19.57;55.02;99408.75;4905419;29;20390;-91
2022/05/16 03:19:53;;;;;;;2.97;2.15;;;;;;;19.59;54.90;99404.78;4905193;29;20162;-90
2022/05/16 03:22:18;;;;;;;5.88;2.50;;;;;;;19.60;55.09;99405.63;4905062;29;20031;-90
2022/05/16 03:24:44;;;;;;;4.05;2.40;;;;;;;19.62;55.80;99406.25;4936633;29;20030;-90
2022/05/16 03:27:10;;;;;;;3.67;2.10;;;;;;;19.62;55.64;99406.25;4904717;29;20055;-91
2022/05/16 03:29:36;;;;;;;4.75;2.60;;;;;;;19.60;56.00;99413.75;4905042;29;20027;-90
2022/05/16 03:32:01;;;;;;;3.75;2.25;;;;;;;19.62;55.58;99417.09;4905308;29;20039;-91
2022/05/16 05:29:08;;;;;;;4.97;2.42;;;;;;;20.06;61.08;99449.00;4939238;29;20094;-91
2022/05/16 05:31:35;;;;;;;5.18;2.35;;;;;;;20.07;60.15;99453.38;4900794;29;20079;-90
2022/05/16 05:34:01;;;;;;;3.17;2.30;;;;;;;20.10;61.20;99458.38;4900678;29;20060;-90
2022/05/16 05:36:27;;;;;;;2.97;1.90;;;;;;;20.12;60.64;99461.72;4885147;29;20028;-91
2022/05/16 05:38:52;;;;;;;4.10;2.00;;;;;;;20.16;60.19;99454.81;4900725;29;20047;-91
2022/05/16 05:41:21;;;;;;;1.75;1.63;;;;;;;20.19;60.42;99464.41;4900858;29;20083;-90
2022/05/16 05:43:46;;;;;;;4.47;1.85;;;;;;;20.20;60.32;99469.63;4900428;29;20123;-90
2022/05/16 05:46:12;;;;;;;3.05;1.90;;;;;;;20.22;59.44;99470.25;4900650;29;20178;-90
2022/05/16 05:48:37;;;;;;;3.90;1.88;;;;;;;20.22;59.37;99467.53;4899795;29;20119;-90
2022/05/16 05:51:03;;;;;;;2.60;2.00;;;;;;;20.30;60.33;99477.34;4877302;29;20111;-91
2022/05/16 05:53:28;;;;;;;4.30;1.95;;;;;;;20.30;60.00;99480.88;4876706;29;20053;-90
2022/05/16 05:55:54;;;;;;;2.58;1.67;;;;;;;20.31;59.53;99484.44;4876501;29;20882;-91
2022/05/16 05:58:19;;;;;;;2.05;1.50;;;;;;;20.29;59.75;99478.38;4876917;29;20036;-91
2022/05/16 06:00:45;;;;;;;3.17;1.90;;;;;;;20.31;59.25;99479.84;4897228;29;20029;-90
2022/05/16 06:03:10;;;;;;;3.35;1.60;;;;;;;20.33;59.58;99476.91;5360074;23;20315;-90
2022/05/16 06:05:36;;;;;;;2.10;1.42;;;;;;;20.31;60.00;99481.72;4921931;29;20042;-90
2022/05/16 06:08:02;;;;;;;2.28;1.42;;;;;;;20.27;59.45;99491.34;4922084;29;20027;-91
2022/05/16 06:10:27;;;;;;;2.13;1.67;;;;;;;20.29;59.38;99492.81;4917306;29;20035;-89
2022/05/16 06:12:53;;;;;;;2.22;1.50;;;;;;;20.29;60.08;99494.69;4917751;29;20050;-91
2022/05/16 06:15:19;;;;;;;2.53;1.60;;;;;;;20.30;59.35;99497.19;4918681;29;20058;-90
2022/05/16 06:17:46;;;;;;;3.13;1.60;;;;;;;20.30;60.04;99493.63;4917544;29;20342;-90
2022/05/16 06:20:12;;;;;;;2.78;1.52;;;;;;;20.30;59.55;99489.03;4934130;29;20038;-90
2022/05/16 06:22:38;;;;;;;1.42;1.33;;;;;;;20.32;60.14;99491.53;4933932;29;20031;-90
2022/05/16 06:27:49;;;;;;;2.80;1.50;;;;;;;20.36;60.04;99506.41;4950408;29;20143;-91
2022/05/16 06:30:19;;;;;;;3.92;1.77;;;;;;;20.38;60.25;99510.56;4918361;29;20472;-90
2022/05/16 06:32:44;;;;;;;2.67;1.63;;;;;;;20.37;59.02;99514.34;4934248;29;20042;-90
2022/05/16 06:35:12;;;;;;;3.30;1.73;;;;;;;20.39;58.99;99516.84;4909622;29;20278;-91
2022/05/16 06:37:37;;;;;;;1.67;1.45;;;;;;;20.39;59.08;99512.28;4904053;29;20075;-93
2022/05/16 06:40:04;;;;;;;2.40;1.70;;;;;;;20.42;58.68;99521.88;4914297;29;20035;-92
2022/05/16 06:42:29;;;;;;;3.70;1.50;;;;;;;20.43;59.21;99513.50;4898209;29;20028;-93
2022/05/16 06:44:55;;;;;;;1.98;1.60;;;;;;;20.45;59.17;99517.91;4897958;29;20545;-93
2022/05/16 06:47:21;;;;;;;3.40;1.60;;;;;;;20.43;59.52;99524.38;4913827;29;20027;-94
2022/05/16 06:49:46;;;;;;;2.60;1.80;;;;;;;20.45;60.08;99532.31;4913439;29;20433;-93
2022/05/16 06:52:11;;;;;;;2.78;1.70;;;;;;;20.47;60.44;99541.09;4897920;29;20126;-94
2022/05/16 06:54:37;;;;;;;2.00;1.80;;;;;;;20.48;59.33;99533.78;4897316;29;20053;-93
2022/05/16 06:57:03;;;;;;;2.85;1.70;;;;;;;20.48;59.70;99539.22;4897265;29;20028;-92
2022/05/16 06:59:28;;;;;;;2.13;1.83;;;;;;;20.46;58.94;99535.88;4897933;29;20039;-92
2022/05/16 07:01:54;;;;;;;4.30;1.85;;;;;;;20.43;59.17;99543.41;4912608;29;20078;-93
2022/05/16 07:04:19;;;;;;;4.05;1.60;;;;;;;20.45;59.33;99543.19;4893669;29;20048;-94
2022/05/16 07:06:44;;;;;;;3.15;1.80;;;;;;;20.46;59.36;99538.59;4893685;29;20188;-92
2022/05/16 07:09:10;;;;;;;2.60;1.67;;;;;;;20.49;59.21;99539.00;4894290;29;20561;-92
2022/05/16 07:11:35;;;;;;;2.50;1.80;;;;;;;20.55;59.65;99540.84;4894298;29;20156;-91
2022/05/16 07:14:01;;;;;;;2.65;1.80;;;;;;;20.59;59.79;99536.66;4909503;29;20047;-93
2022/05/16 07:16:26;;;;;;;2.20;1.80;;;;;;;20.63;60.44;99532.47;4893983;29;20513;-93
2022/05/16 07:18:52;;;;;;;2.08;1.75;;;;;;;20.66;60.14;99536.66;4893528;29;20032;-95
2022/05/16 07:21:17;;;;;;;2.10;1.77;;;;;;;20.67;60.26;99544.59;4908433;29;20067;-92
2022/05/16 07:23:43;;;;;;;1.77;1.50;;;;;;;20.68;59.84;99542.69;4909330;29;20032;-93
2022/05/16 07:28:52;;;;;;;3.15;1.60;;;;;;;20.69;60.64;99553.34;4909774;29;20046;-91
2022/05/16 07:31:17;;;;;;;2.92;1.60;;;;;;;20.68;61.11;99551.69;4893520;29;20065;-93
2022/05/16 07:33:43;;;;;;;3.35;1.63;;;;;;;20.68;61.32;99551.69;4909279;29;20119;-92
2022/05/16 07:36:08;;;;;;;1.63;1.50;;;;;;;20.69;61.10;99552.53;4893368;29;20115;-94
2022/05/16 07:38:34;;;;;;;1.88;1.35;;;;;;;20.70;61.51;99551.47;4909002;29;20036;-92
2022/05/16 07:40:59;;;;;;;2.45;1.38;;;;;;;20.72;61.70;99554.81;4908975;29;20100;-93
2022/05/16 07:43:25;;;;;;;3.15;1.88;;;;;;;20.73;61.29;99556.47;4893085;29;20454;-93
2022/05/16 07:45:51;;;;;;;2.47;1.70;;;;;;;20.75;61.61;99548.94;4892936;29;20036;-92
2022/05/16 07:48:17;;;;;;;2.17;1.60;;;;;;;20.80;61.62;99551.84;4893432;29;20091;-94
2022/05/16 07:50:44;;;;;;;1.70;1.52;;;;;;;20.80;61.69;99551.84;4908905;29;20040;-94
2022/05/16 07:53:13;;;;;;;3.75;1.67;;;;;;;20.84;61.56;99547.69;4909009;29;20075;-93
2022/05/16 07:55:40;;;;;;;3.25;1.92;;;;;;;20.85;61.23;99557.50;4893480;29;20039;-93
2022/05/16 07:58:06;;;;;;;2.10;1.52;;;;;;;20.87;61.52;99558.13;4892528;29;20127;-91
2022/05/16 08:00:31;;;;;;;2.00;1.80;;;;;;;20.88;61.38;99559.81;4892998;29;20119;-93
2022/05/16 08:02:57;;;;;;;2.53;1.70;;;;;;;20.91;61.20;99553.94;4908535;29;20233;-93
2022/05/16 08:05:22;;;;;;;2.95;1.75;;;;;;;20.91;61.62;99553.09;4893084;29;20107;-93
2022/05/16 08:10:34;;;;;;;2.67;1.77;;;;;;;20.98;60.99;99553.91;4909355;29;20047;-92
2022/05/16 08:13:08;;;;;;;3.72;1.90;;;;;;;20.99;60.96;99558.28;4908890;29;20047;-91
2022/05/16 08:15:35;;;;;;;2.90;1.75;;;;;;;21.01;61.62;99565.19;4908785;29;20483;-91
2022/05/16 08:18:02;;;;;;;2.67;1.70;;;;;;;21.00;62.05;99566.22;4908442;29;20492;-91
2022/05/16 08:20:29;;;;;;;2.90;1.75;;;;;;;21.03;61.81;99568.53;4908815;29;20024;-92
2022/05/16 08:22:55;;;;;;;2.05;1.55;;;;;;;21.03;62.21;99570.41;4892331;29;20035;-91
2022/05/16 08:25:21;;;;;;;2.60;1.70;;;;;;;21.06;61.56;99572.69;4909316;29;20184;-91
2022/05/16 08:27:50;;;;;;;2.90;1.63;;;;;;;21.10;60.99;99567.66;4892835;29;20059;-90
2022/05/16 08:30:15;;;;;;;2.30;1.60;;;;;;;21.13;60.94;99576.22;4893455;29;20439;-92
2022/05/16 08:32:41;;;;;;;2.45;1.60;;;;;;;21.12;61.52;99579.16;4910540;29;20064;-90
2022/05/16 08:35:08;;;;;;;2.72;1.77;;;;;;;21.13;61.64;99580.81;4897284;29;20098;-91
2022/05/16 08:40:19;;;;;;;4.28;1.77;;;;;;;21.22;61.61;99582.25;4914688;29;20035;-92
2022/05/16 08:43:00;;;;;;;3.47;1.70;;;;;;;21.28;60.47;99584.13;4907467;29;20475;-90
2022/05/16 08:45:36;;;;;;;1.50;1.40;;;;;;;21.25;61.12;99588.13;4912219;29;20574;-90
2022/05/16 08:48:38;;;;;;;2.97;1.50;;;;;;;21.25;60.74;99592.72;4912790;29;20027;-90
2022/05/16 08:51:12;;;;;;;2.00;1.40;;;;;;;21.25;61.64;99587.28;4883786;29;20185;-90
2022/05/16 08:54:17;;;;;;;2.22;1.42;;;;;;;21.23;61.98;99598.38;4912692;29;20103;-90
2022/05/16 08:56:45;;;;;;;1.70;1.33;;;;;;;21.24;61.54;99591.06;4897068;29;20502;-90
2022/05/16 08:59:17;;;;;;;1.50;1.40;;;;;;;21.23;61.64;99597.56;4897575;29;20047;-90
2022/05/16 09:01:52;;;;;;;2.70;1.60;;;;;;;21.23;62.53;99595.66;4891713;29;20504;-92
2022/05/16 09:04:30;;;;;;;2.22;1.65;;;;;;;21.24;62.51;99589.16;4931646;29;20497;-90
2022/05/16 09:07:02;;;;;;;1.77;1.48;;;;;;;21.25;62.32;99599.00;4901922;29;20471;-90
2022/05/16 09:09:42;;;;;;;2.17;1.55;;;;;;;21.33;61.76;99592.50;4903850;29;20036;-91
2022/05/16 09:12:25;;;;;;;1.75;1.40;;;;;;;21.33;62.22;99592.50;4912366;29;20036;-90
2022/05/16 09:15:41;;;;;;;1.80;1.48;;;;;;;21.34;62.28;99591.47;4908844;29;20036;-91
2022/05/16 09:18:30;;;;;;;2.63;1.50;;;;;;;21.38;61.98;99589.97;4878476;29;20238;-90
2022/05/16 09:21:12;;;;;;;1.88;1.50;;;;;;;21.42;62.22;99607.53;4916842;29;20062;-90
2022/05/16 09:23:50;;;;;;;2.17;1.52;;;;;;;21.41;62.29;99614.03;4900087;29;20032;-91
2022/05/16 09:26:36;;;;;;;2.13;1.47;;;;;;;21.42;62.04;99623.03;4900871;29;20037;-90
2022/05/16 09:29:12;;;;;;;1.98;1.70;;;;;;;21.45;62.16;99628.03;4911410;29;20107;-89
2022/05/16 09:31:42;;;;;;;2.75;1.90;;;;;;;21.45;62.82;99637.03;4887855;29;20206;-90
2022/05/16 09:34:09;;;;;;;4.95;2.17;;;;;;;21.47;61.75;99637.66;4911111;29;20028;-90
2022/05/16 09:36:40;;;;;;;3.03;1.65;;;;;;;21.44;61.74;99662.56;4894941;29;20127;-90
2022/05/16 09:39:07;;;;;;;2.83;1.80;;;;;;;21.46;62.33;99656.91;4911065;29;20111;-89
2022/05/16 09:41:33;;;;;;;3.05;1.90;;;;;;;21.43;62.37;99658.19;4910562;29;20123;-87
2022/05/16 09:44:10;;;;;;;4.65;2.00;;;;;;;21.39;62.23;99665.09;4909566;29;20115;-78
2022/05/16 09:46:39;;;;;;;5.27;2.37;;;;;;;21.40;63.83;99676.81;4928157;29;20028;-77
2022/05/16 09:49:11;;;;;;;4.03;2.03;;;;;;;21.38;65.91;99677.03;4905596;29;20036;-77
2022/05/16 09:52:03;;;;;;;5.82;2.55;;;;;;;21.35;67.84;99680.19;4928718;29;20060;-79
2022/05/16 09:54:37;;;;;;;2.65;1.88;;;;;;;21.31;67.74;99671.63;4914214;29;20138;-91
2022/05/16 09:57:02;;;;;;;3.13;2.00;;;;;;;21.29;67.50;99670.16;4909528;29;20028;-91
2022/05/16 09:59:38;;;;;;;2.83;2.08;;;;;;;21.30;67.83;99666.41;4924567;29;20036;-92
2022/05/16 10:02:09;;;;;;;2.95;1.88;;;;;;;21.33;68.50;99666.81;4909308;29;20378;-93
2022/05/16 10:04:40;;;;;;;3.90;2.10;;;;;;;21.36;68.53;99660.09;4931518;29;20083;-93
2022/05/16 10:07:06;;;;;;;4.55;1.98;;;;;;;21.40;67.51;99653.16;4902417;29;20032;-92
2022/05/16 10:09:45;;;;;;;3.45;2.13;;;;;;;21.46;68.70;99659.63;4918607;29;20028;-92
2022/05/16 10:12:15;;;;;;;4.78;1.88;;;;;;;21.46;67.82;99659.63;4915486;29;20487;-92
2022/05/16 10:14:41;;;;;;;2.80;1.60;;;;;;;21.49;66.89;99659.19;4915565;29;20035;-92
2022/05/16 10:17:10;;;;;;;11.30;3.42;;;;;;;21.57;70.28;99651.63;4890525;29;20032;-92
2022/05/16 10:19:38;;;;;;;4.03;2.38;;;;;;;21.56;70.06;99654.56;4918801;29;20123;-92
2022/05/16 10:22:14;;;;;;;3.00;2.03;;;;;;;21.57;68.52;99661.66;4903481;29;20032;-93
2022/05/16 10:24:47;;;;;;;4.15;2.75;;;;;;;21.57;67.55;99659.78;4900957;29;20100;-92
2022/05/16 10:27:14;;;;;;;3.50;2.28;;;;;;;21.58;66.91;99660.63;4918544;29;20026;-92
2022/05/16 10:29:43;;;;;;;3.45;2.10;;;;;;;21.58;66.35;99668.78;4912521;29;20034;-92
2022/05/16 10:35:10;;;;;;;7.25;2.67;;;;;;;21.64;67.27;99668.75;4917428;29;20099;-92
2022/05/16 10:37:38;;;;;;;4.97;2.35;;;;;;;21.68;67.44;99678.16;4902923;29;20024;-91
2022/05/16 10:40:08;;;;;;;4.07;2.22;;;;;;;21.70;67.29;99677.94;4902094;29;20032;-91
2022/05/16 10:42:47;;;;;;;3.45;2.30;;;;;;;21.74;66.41;99686.50;4917765;29;20595;-91
2022/05/16 10:45:19;;;;;;;7.82;3.03;;;;;;;21.81;67.09;99696.34;4901066;29;20020;-91
2022/05/16 10:47:58;;;;;;;4.22;2.53;;;;;;;21.79;66.39;99687.56;4896928;29;20020;-90
2022/05/16 10:50:29;;;;;;;5.90;2.95;;;;;;;21.81;67.55;99688.16;4923501;29;20437;-91
2022/05/16 10:53:06;;;;;;;3.90;2.42;;;;;;;21.83;66.41;99694.22;4898239;29;20032;-91
2022/05/16 10:55:40;;;;;;;8.20;2.88;;;;;;;21.91;66.96;99690.41;4899170;29;20055;-91
2022/05/16 10:58:53;;;;;;;5.93;2.95;;;;;;;21.90;66.34;99689.56;4883648;29;20428;-92
2022/05/16 11:01:22;;;;;;;3.33;3.03;;;;;;;21.91;66.88;99702.13;4846500;29;20068;-92
2022/05/16 11:04:00;;;;;;;2.35;2.15;;;;;;;21.90;65.92;99707.81;4895013;29;20072;-92
2022/05/16 11:06:48;;;;;;;7.53;3.35;;;;;;;21.93;66.77;99708.19;4898951;29;20041;-93
2022/05/16 11:09:19;;;;;;;7.70;4.88;;;;;;;21.98;67.20;99724.72;4915352;29;20084;-92
2022/05/16 11:11:59;;;;;;;5.80;3.28;;;;;;;22.00;66.55;99728.06;4898890;29;20044;-93
2022/05/16 11:14:33;;;;;;;5.13;3.17;;;;;;;22.06;66.65;99731.84;4899244;29;20036;-91
2022/05/16 11:17:10;;;;;;;5.75;3.50;;;;;;;22.07;67.03;99725.34;4899044;29;20044;-91
2022/05/16 11:19:56;;;;;;;3.55;3.00;;;;;;;22.11;66.56;99721.13;4898962;29;20532;-92
2022/05/16 11:22:29;;;;;;;5.90;4.00;;;;;;;22.15;66.68;99737.84;4898655;29;20380;-92
2022/05/16 11:25:13;;;;;;;5.07;3.15;;;;;;;22.12;66.19;99732.84;4883351;29;20033;-91
2022/05/16 11:28:01;;;;;;;4.18;3.33;;;;;;;22.09;66.43;99727.84;4899638;29;20024;-92
2022/05/16 11:30:47;;;;;;;5.53;3.40;;;;;;;22.07;65.98;99738.13;4898952;29;20048;-92
2022/05/16 11:33:37;;;;;;;8.15;4.88;;;;;;;22.09;65.79;99736.84;4898579;29;20479;-92
2022/05/16 11:36:56;;;;;;;6.07;4.45;;;;;;;22.08;66.05;99745.25;4898482;29;20040;-94
2022/05/16 11:39:37;;;;;;;5.03;3.65;;;;;;;22.10;65.93;99752.13;4896379;29;20373;-94
2022/05/16 11:42:25;;;;;;;5.93;4.35;;;;;;;22.12;66.41;99763.66;4917745;29;20035;-91
2022/05/16 12:05:24;;;;;;;5.10;4.60;;;;;;;22.33;65.55;99781.59;4935645;29;20553;-91
2022/05/16 12:08:13;;;;;;;5.57;4.50;;;;;;;22.29;64.85;99778.47;4922178;29;20071;-92
2022/05/16 12:10:57;;;;;;;5.00;4.40;;;;;;;22.28;65.24;99790.41;4921740;29;20038;-90
2022/05/16 12:13:28;;;;;;;6.00;4.43;;;;;;;22.26;65.39;99778.91;4921696;29;20057;-90
2022/05/16 12:16:22;;;;;;;8.95;5.35;;;;;;;22.27;65.68;99783.28;4905391;29;20031;-91
2022/05/16 12:18:49;;;;;;;7.32;5.45;;;;;;;22.26;65.72;99781.63;4907281;29;20056;-91
2022/05/16 12:21:25;;;;;;;9.23;6.25;;;;;;;22.24;65.65;99783.72;4907491;29;20043;-92
2022/05/16 12:23:51;;;;;;;6.10;5.50;;;;;;;22.24;65.17;99786.44;4920982;29;20024;-90
2022/05/16 12:26:25;;;;;;;6.78;5.70;;;;;;;22.24;65.11;99797.34;4920910;29;20385;-91
2022/05/16 12:29:21;;;;;;;6.95;5.95;;;;;;;22.26;65.21;99791.69;4920698;29;20039;-91
2022/05/16 12:31:52;;;;;;;8.30;5.45;;;;;;;22.35;64.73;99786.81;4893526;29;20040;-87
2022/05/16 12:34:30;;;;;;;8.75;5.47;;;;;;;22.38;64.96;99800.00;4920682;29;20280;-89
2022/05/16 12:36:56;;;;;;;6.75;5.90;;;;;;;22.41;64.43;99792.22;4917608;29;20028;-90
2022/05/16 12:39:29;;;;;;;10.40;5.78;;;;;;;22.46;64.88;99791.56;4929218;29;20059;-88
2022/05/16 12:42:23;;;;;;;9.80;5.43;;;;;;;22.43;65.12;99798.28;4939535;29;20058;-90
2022/05/16 12:44:56;;;;;;;8.13;5.28;;;;;;;22.42;63.82;99809.41;4917685;29;20028;-90
2022/05/16 12:47:22;;;;;;;7.32;5.18;;;;;;;22.39;64.16;99809.84;4901221;29;20028;-91
2022/05/16 12:50:06;;;;;;;7.15;5.30;;;;;;;22.36;64.52;99821.19;4916927;29;20046;-91
2022/05/16 12:53:09;;;;;;;9.90;5.60;;;;;;;22.34;64.52;99823.28;4917073;29;20028;-88
2022/05/16 12:56:00;;;;;;;9.40;5.25;;;;;;;22.30;64.04;99815.56;4917003;29;20407;-89
2022/05/16 12:58:40;;;;;;;5.72;4.95;;;;;;;22.28;64.52;99827.72;4901409;29;20047;-91
2022/05/16 13:01:09;;;;;;;6.13;4.85;;;;;;;22.27;64.65;99828.78;4901703;29;20067;-89
2022/05/16 13:03:49;;;;;;;6.65;4.80;;;;;;;22.24;63.57;99827.31;4916888;29;20059;-90
2022/05/16 13:06:38;;;;;;;5.55;4.75;;;;;;;22.24;63.73;99834.66;4886316;29;20032;-91
2022/05/16 13:32:57;;;;;;;8.30;4.57;;;;;;;22.30;61.49;99845.53;4892584;29;20075;-90
2022/05/16 13:35:27;;;;;;;7.00;4.03;;;;;;;22.31;61.69;99854.53;4850211;29;20397;-89
2022/05/16 13:37:54;;;;;;;5.88;4.18;;;;;;;22.33;61.32;99849.72;4899846;29;20554;-90
2022/05/16 13:40:25;;;;;;;5.40;3.97;;;;;;;22.33;61.72;99857.03;4906996;29;20032;-89
2022/05/16 13:42:54;;;;;;;5.85;3.90;;;;;;;22.31;62.14;99854.53;4906626;29;20027;-91
2022/05/16 13:45:26;;;;;;;;;;;;;;;22.33;61.90;99862.50;4907063;29;20028;-90
2022/05/16 13:47:52;;;;;;;5.95;3.95;;;;;;;22.35;62.41;99858.50;4922861;29;19910;-90
2022/05/16 13:50:25;;;;;;;6.15;3.83;;;;;;;22.37;62.31;99853.66;4907403;29;20031;-89
2022/05/16 13:52:51;;;;;;;6.65;3.80;;;;;;;22.37;61.92;99864.56;4922900;29;20080;-90
2022/05/16 13:55:18;;;;;;;4.28;3.88;;;;;;;22.39;62.09;99857.00;4922726;29;20051;-89
2022/05/16 13:57:44;;;;;;;5.75;4.55;;;;;;;22.39;61.92;99856.19;4922811;29;20028;-90
2022/05/16 14:00:10;;;;;;;6.03;4.68;;;;;;;22.39;61.78;99864.34;4906969;29;20024;-89
2022/05/16 14:02:46;;;;;;;;;;;;;;;;;;;;;
2022/05/16 14:05:36;;;;;;;7.30;4.45;;;;;;;22.35;62.71;99865.84;4924507;29;20046;-91
2022/05/16 14:08:03;;;;;;;6.57;4.22;;;;;;;22.35;62.97;99863.94;4907331;29;20042;-91
2022/05/16 14:10:51;;;;;;;8.35;4.70;;;;;;;22.33;63.10;99862.50;4906417;29;20031;-91
2022/05/16 14:13:29;;;;;;;7.13;4.13;;;;;;;22.32;62.92;99875.28;4924861;29;20374;-91
2022/05/16 14:16:01;;;;;;;6.28;3.90;;;;;;;22.33;63.24;99870.66;4907013;29;20035;-90
2022/05/16 14:18:45;;;;;;;6.47;4.35;;;;;;;22.35;62.89;99872.13;4907538;29;20031;-89
2022/05/16 14:21:39;;;;;;;4.85;4.35;;;;;;;22.36;62.96;99871.06;4938034;29;20024;-90
2022/05/16 14:24:09;;;;;;;4.53;4.10;;;;;;;22.40;63.59;99868.75;4906693;29;20075;-91
2022/05/16 14:26:34;;;;;;;6.10;4.40;;;;;;;22.39;62.66;99877.97;4906311;29;20028;-89
2022/05/16 14:29:20;;;;;;;4.95;3.88;;;;;;;22.38;63.48;99868.97;4925829;29;20493;-90
2022/05/16 14:31:58;;;;;;;5.50;4.10;;;;;;;22.38;63.72;99881.75;4921520;29;20027;-87
2022/05/16 14:34:44;;;;;;;5.78;4.35;;;;;;;22.35;63.16;99882.19;4931384;29;20033;-87
2022/05/16 14:37:09;;;;;;;8.27;4.47;;;;;;;22.34;63.32;99883.25;4903365;29;20056;-87
2022/05/16 14:40:04;;;;;;;6.72;4.32;;;;;;;22.33;62.31;99889.75;4922246;29;20059;-89
2022/05/16 14:42:32;;;;;;;6.22;4.05;;;;;;;22.31;62.89;99892.69;4905526;29;20040;-87
2022/05/16 14:45:04;;;;;;;;;;;;;;;22.28;62.42;99899.41;4902829;29;20028;-89
2022/05/16 14:47:32;;;;;;;5.15;3.50;;;;;;;22.26;62.53;99900.69;4920126;29;19915;-87
2022/05/16 14:49:58;;;;;;;;;;;;;;;22.26;62.84;99908.84;4905972;29;20435;-88
2022/05/16 14:52:26;;;;;;;3.45;3.15;;;;;;;22.26;63.97;99909.69;4921136;29;19925;-88
2022/05/16 14:55:00;;;;;;;6.82;3.60;;;;;;;22.23;61.75;99915.56;4904723;29;20028;-87
2022/05/16 14:57:26;;;;;;;5.13;3.78;;;;;;;22.23;62.02;99910.13;4921060;29;20375;-87
2022/05/16 14:59:51;;;;;;;4.47;3.60;;;;;;;22.22;62.47;99913.88;4921081;29;20028;-88
2022/05/16 15:05:01;;;;;;;6.53;3.35;;;;;;;22.26;62.15;99908.84;4930669;29;20126;-91
2022/05/16 15:07:26;;;;;;;5.45;3.38;;;;;;;22.25;61.18;99918.06;4898968;29;20052;-88
2022/05/16 15:09:52;;;;;;;5.57;3.22;;;;;;;22.25;61.30;99920.81;4883244;29;20100;-88
2022/05/16 15:12:17;;;;;;;5.32;3.20;;;;;;;22.24;61.39;99924.56;4883174;29;20033;-89
2022/05/16 15:14:43;;;;;;;4.85;3.33;;;;;;;22.26;62.09;99922.47;4883524;29;20093;-89
2022/05/16 15:17:12;;;;;;;3.67;2.85;;;;;;;22.27;61.90;99919.53;4898806;29;20024;-88
2022/05/16 15:19:39;;;;;;;5.05;2.90;;;;;;;22.28;61.83;99923.94;4883637;29;20472;-89
2022/05/16 15:22:07;;;;;;;4.00;3.17;;;;;;;22.26;61.54;99923.31;4898685;29;20403;-89
2022/05/16 15:24:35;;;;;;;5.22;3.30;;;;;;;22.27;60.14;99926.88;4898719;29;20029;-88
2022/05/16 15:27:02;;;;;;;5.45;2.85;;;;;;;22.30;61.24;99923.72;4898573;29;20036;-89
2022/05/16 15:29:27;;;;;;;4.95;3.00;;;;;;;22.32;61.25;99927.06;4898857;29;20033;-90
2022/05/16 15:31:53;;;;;;;3.30;2.90;;;;;;;22.34;63.31;99924.13;4883098;29;20076;-90
2022/05/16 15:34:18;;;;;;;5.07;2.90;;;;;;;22.34;61.01;99933.13;4898529;29;20448;-90
2022/05/16 15:36:43;;;;;;;4.57;2.97;;;;;;;22.34;60.17;99927.69;4890662;29;20066;-89
2022/05/16 15:39:17;;;;;;;4.60;2.53;;;;;;;22.34;61.58;99927.69;4917603;29;20123;-88
2022/05/16 15:41:43;;;;;;;4.90;2.80;;;;;;;22.36;62.49;99922.00;4916993;29;20538;-89
2022/05/16 15:44:09;;;;;;;4.70;2.92;;;;;;;22.36;60.10;99933.75;4901880;29;20079;-88
2022/05/16 15:46:37;;;;;;;5.90;3.25;;;;;;;22.34;60.25;99929.56;4901581;29;20119;-88
2022/05/16 15:49:04;;;;;;;;;;;;;;;22.32;59.80;99929.78;4902331;29;20511;-88
2022/05/16 15:51:29;;;;;;;4.15;2.58;;;;;;;22.34;60.52;99933.13;4917344;29;19915;-88
2022/05/16 15:53:54;;;;;;;5.18;2.67;;;;;;;22.36;60.48;99927.47;4901050;29;20028;-88
2022/05/16 15:56:19;;;;;;;4.63;2.65;;;;;;;22.38;61.65;99931.66;4897607;29;20032;-86
2022/05/16 15:58:46;;;;;;;3.30;2.55;;;;;;;22.39;61.09;99930.59;4913329;29;20036;-87
2022/05/16 16:01:13;;;;;;;3.85;2.25;;;;;;;22.42;61.57;99927.44;4897796;29;20597;-86
2022/05/16 16:09:10;;;;;;;2.70;2.35;;;;;;;22.44;61.55;99932.69;4926119;29;20051;-87
2022/05/16 16:11:35;;;;;;;3.85;2.28;;;;;;;22.44;61.31;99938.13;4895843;29;20025;-87
2022/05/16 16:14:01;;;;;;;2.88;2.38;;;;;;;22.48;61.91;99942.94;4897255;29;20092;-87
2022/05/16 16:16:27;;;;;;;5.22;2.28;;;;;;;22.50;60.96;99948.16;4912638;29;20111;-87
2022/05/16 16:18:53;;;;;;;3.28;2.40;;;;;;;22.51;61.10;99942.50;4907017;29;20083;-88
2022/05/16 16:21:20;;;;;;;4.68;2.30;;;;;;;22.51;61.20;99944.38;4896178;29;20029;-87
2022/05/16 16:23:46;;;;;;;5.95;2.58;;;;;;;22.49;59.23;99943.75;4897280;29;20103;-87
2022/05/16 16:26:13;;;;;;;5.45;2.30;;;;;;;22.51;58.89;99942.50;4919768;29;20083;-87
2022/05/16 16:28:39;;;;;;;3.67;1.98;;;;;;;22.55;60.20;99941.00;4911486;29;20100;-87
2022/05/16 16:31:05;;;;;;;2.55;2.17;;;;;;;22.58;60.91;99943.31;4897184;29;20123;-88
2022/05/16 16:33:33;;;;;;;3.17;2.40;;;;;;;22.61;61.25;99958.38;4896506;29;20029;-88
2022/05/16 16:35:58;;;;;;;2.50;2.10;;;;;;;22.66;61.48;99946.84;4921136;29;20028;-88
2022/05/16 16:38:24;;;;;;;5.05;2.40;;;;;;;22.71;60.17;99953.34;4912931;29;20037;-88
2022/05/16 16:40:56;;;;;;;4.78;2.35;;;;;;;22.73;61.17;99953.97;4913136;29;20099;-88
2022/05/16 16:43:28;;;;;;;4.43;2.30;;;;;;;22.77;59.70;99947.00;4910639;29;20054;-89
2022/05/16 16:46:00;;;;;;;5.07;2.22;;;;;;;22.78;58.20;99953.31;4906009;29;20043;-88
2022/05/16 16:48:28;;;;;;;4.93;2.33;;;;;;;22.73;57.06;99958.56;4906514;29;20032;-87
2022/05/16 16:50:54;;;;;;;2.50;2.17;;;;;;;22.75;60.26;99959.19;4890907;29;20024;-88
2022/05/16 16:58:48;;;;;;;3.42;1.77;;;;;;;22.78;59.69;99956.03;4910414;29;20482;-88
2022/05/16 17:01:13;;;;;;;3.15;1.98;;;;;;;22.77;60.72;99962.53;4894260;29;20028;-87
2022/05/16 17:03:39;;;;;;;3.83;2.10;;;;;;;22.76;58.64;99960.88;4893736;29;20083;-88
2022/05/16 17:06:04;;;;;;;3.60;1.85;;;;;;;22.73;59.99;99959.41;4908147;29;20494;-88
2022/05/16 17:08:29;;;;;;;5.03;1.80;;;;;;;22.73;59.72;99964.03;4892873;29;20028;-88
2022/05/16 17:10:59;;;;;;;4.25;1.85;;;;;;;22.69;59.70;99968.22;4892764;29;20545;-88
2022/05/16 17:13:27;;;;;;;2.55;1.73;;;;;;;22.67;58.75;99968.44;4908304;29;20036;-88
2022/05/16 17:15:54;;;;;;;;;;;;;;;22.66;59.91;99972.22;4892707;29;20032;-88